This is the latest recevied weather packets stored in our database for station/object N0QV. If no packets are shown the sender has not sent any weather packets the latest 10 day(s).
| Time | Temp. | Humidity | Pressure | Rain* | Wind** | Luminosity | Snow |
|---|---|---|---|---|---|---|---|
| 1777886940 | 11.11° C | 56% | 999.3 hPa | 0 mm | - | 0 W/m² | - |
| 1777886635 | 11.11° C | 55% | 999.5 hPa | 0 mm | - | 0 W/m² | - |
| 1777886333 | 10.56° C | 56% | 999.5 hPa | 0 mm | - | 0 W/m² | - |
| 1777886031 | 10.56° C | 57% | 999.9 hPa | 0 mm | - | 0 W/m² | - |
| 1777885729 | 10.56° C | 56% | 999.9 hPa | 0 mm | - | 0 W/m² | - |
| 1777885427 | 11.11° C | 54% | 999.9 hPa | 0 mm | - | 0 W/m² | - |
| 1777885126 | 11.11° C | 54% | 999.9 hPa | 0 mm | - | 0 W/m² | - |
| 1777884822 | 11.11° C | 54% | 999.9 hPa | 0 mm | - | 0 W/m² | - |
| 1777884518 | 11.67° C | 54% | 1000.1 hPa | 0 mm | - | 0 W/m² | - |
| 1777884216 | 11.67° C | 53% | 1000 hPa | 0 mm | - | 0 W/m² | - |
| 1777883912 | 12.22° C | 50% | 1000.3 hPa | 0 mm | - | 0 W/m² | - |
| 1777883609 | 12.22° C | 51% | 1000.1 hPa | 0 mm | - | 0 W/m² | - |
| 1777883305 | 12.22° C | 51% | 1000.1 hPa | 0 mm | - | 0 W/m² | - |
| 1777883001 | 12.22° C | 51% | 1000.2 hPa | 0 mm | - | 0 W/m² | - |
| 1777882698 | 12.22° C | 52% | 1000.4 hPa | 0 mm | - | 0 W/m² | - |
| 1777882394 | 12.22° C | 50% | 1000.5 hPa | 0 mm | - | 0 W/m² | - |
| 1777882090 | 12.22° C | 51% | 1000.6 hPa | 0 mm | - | 0 W/m² | - |
| 1777881788 | 12.22° C | 50% | 1000.7 hPa | 0 mm | - | 0 W/m² | - |
| 1777881484 | 12.22° C | 51% | 1000.6 hPa | 0 mm | - | 0 W/m² | - |
| 1777881182 | 12.22° C | 51% | 1000.4 hPa | 0 mm | - | 0 W/m² | - |
| 1777880879 | 11.67° C | 53% | 1000.6 hPa | 0 mm | - | 0 W/m² | - |
| 1777880577 | 11.67° C | 53% | 1000.9 hPa | 0 mm | - | 0 W/m² | - |
| 1777880275 | 11.11° C | 55% | 1000.7 hPa | 0 mm | - | 0 W/m² | - |
| 1777879973 | 11.67° C | 54% | 1001.2 hPa | 0 mm | - | 0 W/m² | - |
| 1777879671 | 11.67° C | 52% | 1001.3 hPa | 0 mm | - | 0 W/m² | - |
* Rain latest hour (hover to see other rain measurements)
** Current wind speed in m/s (hover to see current wind gust speed)